Startpagina
METAR-TAF:

METAR-TAF

Vliegvelden :

Internationale Luchthaven Baghdad

Bagdad, Irak

breedte: 33-15-45N, lengte: 44-14-04E, hoogte: 35 m

Actueel weer

Dit bericht is 31 minuten geleden gemaakt, om 18:00 UTC
Wind 5 kt uit het noordwesten, variërend tussen het westen en het noorden
Temperatuur 35°C
Vochtigheid 22%
Druk 997 hPa
Zicht 10 km of meer
geen wolken onder 1500 m en geen cumulonimbus

METAR: ORBI 181800Z 32005KT 280V360 CAVOK 35/10 Q0997 NOSIG

Tijdstip: 21:31 (18:31 UTC)

Verwachting

Dit bericht is 2 uur en het 31 minuten geleden gemaakt, om 16:00 UTC
Verwachting geldig van 18 om 18 UTC tot 19 om 18 UTC
Wind 10 kt uit het westnoordwesten
Zicht: 7000 m

TAF: ORBI 181600Z 1818/1918 30010KT 7000 NSC

Waarnemingen en weersverwachtingen van meer dan 4000 vliegvelden (METAR en TAF).

De beschikbare stations zijn de gele en rode punten op de kaart.

Ga met uw muis naar het station om de naam te zien.

Klik dan om waarnemingen en weersverwachtingen te zien.

kaart wijzigen: klik op de groene knoppen met een zwart kruis om in te zoomen, op de groene knop met een streepje om uit te zoomen of op de groene pijlen voor aangrenzende kaarten.


METAR-TAF: